Birmingham (BHM/KBHM)

Map

Destinations

Information

Location
Birmingham, AL
Local Time
18:26 / 6:26 pm
GMT Time
00:26 / 12:26 am
Gates
Unassigned
No FAA reported delays
METAR KBHM 230021Z 26010KT 10SM BKN011 OVC019 11/10 A2933 RMK AO2 RAB07E17 P0000 T01060100
TAF KBHM 222349Z 2300/2324 28009KT P6SM -RA OVC007 FM230300 30010G16KT 5SM -RA BR OVC015 FM230700 31015G24KT P6SM OVC015
  • No charts available